Time;durP1;ratioP1;P1;durP2;ratioP2;P2;SDS_P1;SDS_P2;PMS_P1;PMS_P2;Temp;Humidity;BMP_temperature;BMP_pressure;BME280_temperature;BME280_humidity;BME280_pressure;Samples;Min_cycle;Max_cycle;Signal;HPM_P1;HPM_P2
2021/09/28 00:00:53;;;;;;;0.93;0.60;;;20.20;99.90;;;;;;5013670;28;20466;-77
2021/09/28 00:03:23;;;;;;;0.50;0.50;;;20.20;99.90;;;;;;5010489;28;20483;-76
2021/09/28 00:05:51;;;;;;;0.50;0.50;;;20.20;99.90;;;;;;5005591;28;20467;-76
2021/09/28 00:08:19;;;;;;;0.50;0.50;;;20.10;99.90;;;;;;5025158;28;20453;-76
2021/09/28 00:10:47;;;;;;;0.50;0.50;;;20.10;99.90;;;;;;5007225;28;20493;-74
2021/09/28 00:13:16;;;;;;;0.50;0.50;;;20.20;99.90;;;;;;5009251;28;20547;-74
2021/09/28 00:15:44;;;;;;;0.50;0.50;;;20.20;99.90;;;;;;5001278;28;21207;-77
2021/09/28 00:18:12;;;;;;;0.53;0.53;;;20.10;99.90;;;;;;5006447;28;20968;-74
2021/09/28 00:20:41;;;;;;;0.60;0.60;;;20.10;99.90;;;;;;5007157;28;20480;-76
2021/09/28 00:23:14;;;;;;;0.77;0.40;;;20.00;99.90;;;;;;5008986;28;20519;-77
2021/09/28 00:25:43;;;;;;;0.40;0.40;;;20.00;99.90;;;;;;5003064;28;20504;-75
2021/09/28 00:28:11;;;;;;;0.77;0.50;;;20.00;99.90;;;;;;5009788;28;20453;-75
2021/09/28 00:30:39;;;;;;;0.40;0.40;;;19.90;99.90;;;;;;5009542;28;20597;-77
2021/09/28 00:33:07;;;;;;;0.50;0.50;;;19.80;99.90;;;;;;5009827;28;21193;-75
2021/09/28 00:35:38;;;;;;;0.70;0.60;;;19.60;99.90;;;;;;5006506;28;20485;-77
2021/09/28 00:38:07;;;;;;;0.60;0.50;;;19.50;99.90;;;;;;5008604;28;20458;-77
2021/09/28 00:40:36;;;;;;;0.50;0.50;;;19.50;99.90;;;;;;5007114;28;20516;-75
2021/09/28 00:43:04;;;;;;;0.50;0.50;;;19.40;99.90;;;;;;5009901;28;20485;-77
2021/09/28 00:45:32;;;;;;;0.50;0.50;;;19.40;99.90;;;;;;5002645;28;20457;-75
2021/09/28 00:48:00;;;;;;;0.70;0.50;;;19.50;99.90;;;;;;5010824;28;20461;-76
2021/09/28 00:50:28;;;;;;;0.50;0.50;;;19.50;99.90;;;;;;5009505;28;20481;-76
2021/09/28 00:52:57;;;;;;;0.43;0.40;;;19.40;99.90;;;;;;5003189;28;20469;-76
2021/09/28 00:55:28;;;;;;;0.57;0.43;;;19.40;99.90;;;;;;5007698;28;20457;-77
2021/09/28 00:57:57;;;;;;;0.50;0.50;;;19.40;99.90;;;;;;5000885;28;20539;-77
2021/09/28 01:00:25;;;;;;;0.90;0.60;;;19.40;99.90;;;;;;5010757;28;20571;-76
2021/09/28 01:02:55;;;;;;;0.50;0.50;;;19.40;99.90;;;;;;5002855;28;20820;-76
2021/09/28 01:05:24;;;;;;;0.47;0.47;;;19.30;99.90;;;;;;5014316;28;20468;-76
2021/09/28 01:07:52;;;;;;;0.50;0.50;;;19.30;99.90;;;;;;5010560;28;20512;-76
2021/09/28 01:10:20;;;;;;;0.40;0.40;;;19.40;99.90;;;;;;5009440;28;20473;-76
2021/09/28 01:12:50;;;;;;;0.87;0.60;;;19.40;99.90;;;;;;5025208;28;20527;-77
2021/09/28 01:15:18;;;;;;;0.50;0.50;;;19.30;99.90;;;;;;5007965;28;20472;-75
2021/09/28 01:17:46;;;;;;;1.10;0.50;;;19.20;99.90;;;;;;5007454;28;20484;-77
2021/09/28 01:20:14;;;;;;;0.90;0.70;;;19.00;99.90;;;;;;5010391;28;20450;-74
2021/09/28 01:22:44;;;;;;;1.63;0.67;;;19.10;99.90;;;;;;5010933;28;20535;-76
2021/09/28 01:25:13;;;;;;;0.80;0.50;;;19.00;99.90;;;;;;5013843;28;20480;-75
2021/09/28 01:27:41;;;;;;;2.67;0.73;;;19.10;99.90;;;;;;5011813;28;20460;-76
2021/09/28 01:30:11;;;;;;;1.33;0.60;;;19.10;99.90;;;;;;5007923;28;20478;-76
2021/09/28 01:32:40;;;;;;;0.60;0.60;;;19.10;99.90;;;;;;5009250;28;21010;-76
2021/09/28 01:35:08;;;;;;;0.50;0.50;;;19.00;99.90;;;;;;5013126;28;21028;-77
2021/09/28 01:37:37;;;;;;;0.60;0.60;;;19.10;99.90;;;;;;5025262;28;20452;-77
2021/09/28 01:40:07;;;;;;;0.80;0.70;;;19.00;99.90;;;;;;5011990;28;20461;-75
2021/09/28 01:42:35;;;;;;;1.47;0.60;;;19.10;99.90;;;;;;5011343;28;20477;-76
2021/09/28 01:45:04;;;;;;;1.20;0.63;;;19.20;99.90;;;;;;5012039;28;20535;-76
2021/09/28 01:47:33;;;;;;;0.60;0.60;;;19.00;99.90;;;;;;5011014;28;20457;-76
2021/09/28 01:50:01;;;;;;;0.80;0.70;;;19.00;99.90;;;;;;5012901;28;20854;-77
2021/09/28 01:52:29;;;;;;;0.90;0.63;;;18.90;99.90;;;;;;5002945;28;21010;-76
2021/09/28 01:54:57;;;;;;;0.80;0.70;;;18.90;99.90;;;;;;5008822;28;20514;-76
2021/09/28 01:57:27;;;;;;;1.70;0.73;;;18.90;99.90;;;;;;5012099;28;20972;-76
2021/09/28 01:59:55;;;;;;;1.70;0.60;;;19.00;99.90;;;;;;5005814;28;20946;-78
2021/09/28 02:02:23;;;;;;;1.03;0.70;;;19.10;99.90;;;;;;5005974;28;20469;-78
2021/09/28 02:04:51;;;;;;;0.90;0.80;;;19.10;99.90;;;;;;5011538;28;20480;-75
2021/09/28 02:07:19;;;;;;;0.70;0.70;;;19.10;99.90;;;;;;5012693;28;20540;-77
2021/09/28 02:09:48;;;;;;;1.00;0.80;;;19.10;99.90;;;;;;5010156;28;20544;-77
2021/09/28 02:12:16;;;;;;;1.90;0.73;;;19.10;99.90;;;;;;5012105;28;20543;-76
2021/09/28 02:14:45;;;;;;;1.20;0.80;;;18.90;99.90;;;;;;5011187;28;20465;-76
2021/09/28 02:17:14;;;;;;;0.60;0.60;;;19.00;99.90;;;;;;5011099;28;20563;-76
2021/09/28 02:19:42;;;;;;;2.00;0.70;;;19.10;99.90;;;;;;5001635;28;20492;-75
2021/09/28 02:22:10;;;;;;;0.80;0.63;;;19.10;99.90;;;;;;5006028;28;21028;-76
2021/09/28 02:24:38;;;;;;;1.90;0.80;;;19.10;99.90;;;;;;5010825;28;20459;-76
2021/09/28 02:27:07;;;;;;;0.63;0.63;;;19.10;99.90;;;;;;5011855;28;20457;-76
2021/09/28 02:29:35;;;;;;;0.70;0.70;;;19.10;99.90;;;;;;5012846;28;20461;-75
2021/09/28 02:32:06;;;;;;;0.60;0.60;;;19.10;99.90;;;;;;5010110;28;20543;-73
2021/09/28 02:34:35;;;;;;;1.17;0.70;;;19.00;99.90;;;;;;5009647;28;20453;-76
2021/09/28 02:37:04;;;;;;;1.73;0.60;;;18.90;99.90;;;;;;5008622;28;20453;-77
2021/09/28 02:39:32;;;;;;;1.47;0.70;;;18.90;99.90;;;;;;5002690;28;21162;-78
2021/09/28 02:42:00;;;;;;;1.27;0.70;;;18.80;99.90;;;;;;5003702;28;20504;-77
2021/09/28 02:44:28;;;;;;;0.83;0.83;;;18.90;99.90;;;;;;5010902;28;20465;-78
2021/09/28 02:46:56;;;;;;;1.57;0.80;;;18.80;99.90;;;;;;5007797;28;20465;-77
2021/09/28 02:49:26;;;;;;;0.70;0.70;;;18.90;99.90;;;;;;5007263;28;20457;-76
2021/09/28 02:51:54;;;;;;;0.70;0.60;;;18.80;99.90;;;;;;5011777;28;20512;-77
2021/09/28 02:54:22;;;;;;;0.90;0.70;;;18.90;99.90;;;;;;5008130;28;20453;-77
2021/09/28 02:56:50;;;;;;;1.27;0.70;;;18.80;99.90;;;;;;4992115;28;20582;-76
2021/09/28 02:59:19;;;;;;;1.07;0.70;;;18.90;99.90;;;;;;5004455;28;20461;-76
2021/09/28 03:01:47;;;;;;;1.87;0.80;;;18.80;99.90;;;;;;5007493;28;20493;-79
2021/09/28 03:04:15;;;;;;;1.20;0.80;;;18.80;99.90;;;;;;5012439;28;20508;-76
2021/09/28 03:06:45;;;;;;;2.30;1.00;;;18.90;99.90;;;;;;5007411;28;20457;-78
2021/09/28 03:09:13;;;;;;;1.23;0.70;;;18.80;99.90;;;;;;5010096;28;20499;-76
2021/09/28 03:11:41;;;;;;;3.50;0.73;;;18.70;99.90;;;;;;5008160;28;20481;-77
2021/09/28 03:14:09;;;;;;;1.47;0.70;;;18.70;99.90;;;;;;5009394;28;20485;-76
2021/09/28 03:16:37;;;;;;;4.07;0.90;;;18.70;99.90;;;;;;5009113;28;20612;-75
2021/09/28 03:19:05;;;;;;;2.13;0.80;;;18.80;99.90;;;;;;5009288;28;20516;-75
2021/09/28 03:21:34;;;;;;;1.53;0.80;;;18.80;99.90;;;;;;5012245;28;20472;-76
2021/09/28 03:24:04;;;;;;;1.70;0.80;;;18.90;99.90;;;;;;5009504;28;20509;-75
2021/09/28 03:26:32;;;;;;;1.93;1.00;;;18.80;99.90;;;;;;4999463;28;20519;-77
2021/09/28 03:29:00;;;;;;;1.50;0.80;;;18.60;99.90;;;;;;5008269;28;20458;-77
2021/09/28 03:31:28;;;;;;;1.83;0.90;;;18.70;99.90;;;;;;5011040;28;20493;-76
2021/09/28 03:33:56;;;;;;;1.10;0.70;;;18.70;99.90;;;;;;5010558;28;20473;-77
2021/09/28 03:36:24;;;;;;;1.13;0.70;;;18.70;99.90;;;;;;5011773;28;20457;-76
2021/09/28 03:38:52;;;;;;;1.00;0.60;;;18.70;99.90;;;;;;5006630;28;20457;-76
2021/09/28 03:41:22;;;;;;;1.80;1.17;;;18.70;99.90;;;;;;5010864;28;20500;-75
2021/09/28 03:43:50;;;;;;;1.73;0.70;;;18.70;99.90;;;;;;5010626;28;20476;-77
2021/09/28 03:46:18;;;;;;;0.80;0.70;;;18.60;99.90;;;;;;5009822;28;20489;-76
2021/09/28 03:48:47;;;;;;;1.07;0.60;;;18.60;99.90;;;;;;5009389;28;20465;-78
2021/09/28 03:51:16;;;;;;;1.60;0.70;;;18.50;99.90;;;;;;5005691;28;21127;-76
2021/09/28 03:53:44;;;;;;;0.70;0.70;;;18.50;99.90;;;;;;5008178;28;20539;-76
2021/09/28 03:56:12;;;;;;;0.93;0.83;;;18.40;99.90;;;;;;5008326;28;20465;-74
2021/09/28 03:58:41;;;;;;;4.90;0.90;;;18.50;99.90;;;;;;5006799;28;20505;-76
2021/09/28 04:01:10;;;;;;;2.50;0.93;;;18.40;99.90;;;;;;5007269;28;20504;-76
2021/09/28 04:03:41;;;;;;;1.23;0.80;;;18.40;99.90;;;;;;5009061;28;20468;-78
2021/09/28 04:06:09;;;;;;;0.73;0.70;;;18.40;99.90;;;;;;5003704;28;20453;-76
2021/09/28 04:08:38;;;;;;;2.17;1.00;;;18.40;99.90;;;;;;5004968;28;20462;-74
2021/09/28 04:11:06;;;;;;;1.63;0.60;;;18.50;99.90;;;;;;5001220;28;20469;-71
2021/09/28 04:13:34;;;;;;;1.43;0.90;;;18.40;99.90;;;;;;5007309;28;20470;-75
2021/09/28 04:16:06;;;;;;;1.63;1.07;;;18.40;99.90;;;;;;5007219;28;21100;-74
2021/09/28 04:18:34;;;;;;;1.20;0.70;;;18.50;99.90;;;;;;5008098;28;20531;-75
2021/09/28 04:21:03;;;;;;;2.40;0.90;;;18.40;99.90;;;;;;5006995;28;20441;-75
2021/09/28 04:23:31;;;;;;;2.20;1.60;;;18.40;99.90;;;;;;5002111;28;20513;-74
2021/09/28 04:25:59;;;;;;;1.30;0.80;;;18.40;99.90;;;;;;5005988;28;20508;-76
2021/09/28 04:28:27;;;;;;;1.30;0.97;;;18.40;99.90;;;;;;5007782;28;20476;-74
2021/09/28 04:30:56;;;;;;;1.70;1.00;;;18.30;99.90;;;;;;5004242;28;20540;-79
2021/09/28 04:33:25;;;;;;;1.07;0.97;;;18.30;99.90;;;;;;5009273;28;20461;-77
2021/09/28 04:35:53;;;;;;;1.37;0.70;;;18.30;99.90;;;;;;5009529;28;20464;-73
2021/09/28 04:38:21;;;;;;;2.30;0.67;;;18.10;99.90;;;;;;5008837;28;20461;-73
2021/09/28 04:40:49;;;;;;;1.73;0.80;;;17.80;99.90;;;;;;5010479;28;20480;-78
2021/09/28 04:43:18;;;;;;;0.90;0.90;;;17.80;99.90;;;;;;5013009;28;20472;-77
2021/09/28 04:45:46;;;;;;;0.90;0.80;;;18.00;99.90;;;;;;5009480;28;20499;-79
2021/09/28 04:48:14;;;;;;;3.37;0.90;;;18.10;99.90;;;;;;5013616;28;20459;-77
2021/09/28 04:50:46;;;;;;;1.70;1.20;;;18.00;99.90;;;;;;5011838;28;20965;-79
2021/09/28 04:53:14;;;;;;;1.27;1.17;;;18.00;99.90;;;;;;5012979;28;20477;-79
2021/09/28 04:55:42;;;;;;;1.47;1.33;;;18.00;99.90;;;;;;5010700;28;20460;-80
2021/09/28 04:58:10;;;;;;;1.27;0.90;;;17.90;99.90;;;;;;5022154;28;20463;-79
2021/09/28 05:00:39;;;;;;;2.00;0.90;;;17.90;99.90;;;;;;5018108;28;20453;-78
2021/09/28 05:03:07;;;;;;;2.83;1.13;;;17.80;99.90;;;;;;5020062;28;20507;-77
2021/09/28 05:05:35;;;;;;;2.10;0.90;;;17.70;99.90;;;;;;5016733;28;20511;-77
2021/09/28 05:08:05;;;;;;;1.53;0.90;;;17.70;99.90;;;;;;5020643;28;20465;-78
2021/09/28 05:10:34;;;;;;;1.67;1.10;;;17.70;99.90;;;;;;5015839;28;20465;-79
2021/09/28 05:13:02;;;;;;;1.00;0.90;;;17.60;99.90;;;;;;5014433;28;20500;-77
2021/09/28 05:15:30;;;;;;;1.27;0.80;;;17.60;99.90;;;;;;5016551;28;20456;-78
2021/09/28 05:17:58;;;;;;;1.00;0.90;;;17.60;99.90;;;;;;5018101;28;20480;-79
2021/09/28 05:20:26;;;;;;;1.97;1.10;;;17.50;99.90;;;;;;5033188;28;20471;-78
2021/09/28 05:22:55;;;;;;;1.00;0.90;;;17.50;99.90;;;;;;5013364;28;20835;-78
2021/09/28 05:25:25;;;;;;;1.90;0.90;;;17.30;99.90;;;;;;5002130;28;20468;-78
2021/09/28 05:27:54;;;;;;;9.33;4.57;;;17.30;99.90;;;;;;5018028;28;20947;-76
2021/09/28 05:30:22;;;;;;;6.23;3.20;;;17.40;99.90;;;;;;5013940;28;20505;-78
2021/09/28 05:32:50;;;;;;;5.37;2.90;;;17.40;99.90;;;;;;5017100;28;20477;-78
2021/09/28 05:35:19;;;;;;;5.93;2.73;;;17.40;99.90;;;;;;5018042;28;20453;-78
2021/09/28 05:37:47;;;;;;;1.93;1.40;;;17.40;99.90;;;;;;5019075;28;20788;-77
2021/09/28 05:40:16;;;;;;;1.70;1.53;;;17.30;99.90;;;;;;5013307;28;20457;-79
2021/09/28 05:42:45;;;;;;;2.37;1.90;;;17.10;99.90;;;;;;5010460;28;21038;-77
2021/09/28 05:45:13;;;;;;;1.33;1.10;;;17.20;99.90;;;;;;5013153;28;20918;-77
2021/09/28 05:47:42;;;;;;;1.77;0.80;;;17.20;99.90;;;;;;5009806;28;21513;-77
2021/09/28 05:50:10;;;;;;;1.90;1.70;;;17.20;99.90;;;;;;5010547;28;20463;-78
2021/09/28 05:52:38;;;;;;;1.27;1.13;;;17.20;99.90;;;;;;5013596;28;20487;-78
2021/09/28 05:55:08;;;;;;;2.40;1.10;;;17.20;99.90;;;;;;5013012;28;20463;-78
2021/09/28 05:57:39;;;;;;;2.63;1.03;;;17.20;99.90;;;;;;5011534;28;20460;-76
2021/09/28 06:00:11;;;;;;;2.77;1.30;;;17.20;99.90;;;;;;5011081;28;20479;-78
2021/09/28 06:02:39;;;;;;;2.10;1.10;;;17.10;99.90;;;;;;5011895;28;20468;-78
2021/09/28 06:05:09;;;;;;;1.23;0.97;;;17.10;99.90;;;;;;5011026;28;21027;-77
2021/09/28 06:07:37;;;;;;;0.90;0.83;;;17.20;99.90;;;;;;5012192;28;20554;-76
2021/09/28 06:10:06;;;;;;;1.73;1.10;;;17.20;99.90;;;;;;5010357;28;20484;-77
2021/09/28 06:12:34;;;;;;;1.87;1.00;;;17.20;99.90;;;;;;5010031;28;20492;-77
2021/09/28 06:15:03;;;;;;;2.40;1.20;;;17.20;99.90;;;;;;5008463;28;20458;-77
2021/09/28 06:17:32;;;;;;;1.50;1.10;;;17.10;99.90;;;;;;5024402;28;20530;-78
2021/09/28 06:20:00;;;;;;;4.13;1.10;;;17.20;99.90;;;;;;5008138;28;20473;-77
2021/09/28 06:22:28;;;;;;;2.20;1.20;;;17.30;99.90;;;;;;5012165;28;20477;-77
2021/09/28 06:24:57;;;;;;;1.53;0.90;;;17.30;99.90;;;;;;5012635;28;21085;-78
2021/09/28 06:27:25;;;;;;;1.30;1.10;;;17.40;99.90;;;;;;5013483;28;20457;-78
2021/09/28 06:29:54;;;;;;;2.17;1.13;;;17.40;99.90;;;;;;5011508;28;20469;-77
2021/09/28 06:32:24;;;;;;;4.50;1.00;;;17.40;99.90;;;;;;5010407;28;20495;-78
2021/09/28 06:34:54;;;;;;;1.00;1.00;;;17.50;99.90;;;;;;5014838;28;20487;-76
2021/09/28 06:37:22;;;;;;;1.50;1.17;;;17.60;99.90;;;;;;5006059;28;20463;-78
2021/09/28 06:39:50;;;;;;;5.93;1.00;;;17.60;99.90;;;;;;5012946;28;20461;-79
2021/09/28 06:42:18;;;;;;;2.23;1.20;;;17.60;99.90;;;;;;5008741;28;20488;-78
2021/09/28 06:44:47;;;;;;;1.03;0.97;;;17.70;99.90;;;;;;5013580;28;20461;-78
2021/09/28 06:47:15;;;;;;;2.40;0.93;;;17.70;99.90;;;;;;5013283;28;20520;-79
2021/09/28 06:49:45;;;;;;;1.67;0.87;;;17.70;99.90;;;;;;5014856;28;20461;-77
2021/09/28 06:52:14;;;;;;;2.83;1.30;;;17.70;99.90;;;;;;5012890;28;20477;-78
2021/09/28 06:54:42;;;;;;;2.00;1.00;;;17.80;99.90;;;;;;5010697;28;20898;-78
2021/09/28 06:57:11;;;;;;;2.63;1.10;;;17.60;99.90;;;;;;5011320;28;20487;-78
2021/09/28 06:59:39;;;;;;;3.03;1.30;;;17.70;99.90;;;;;;5017444;28;20454;-78
2021/09/28 07:02:07;;;;;;;1.30;1.00;;;17.70;99.90;;;;;;5010611;28;20468;-78
2021/09/28 07:04:36;;;;;;;1.63;1.37;;;17.70;99.90;;;;;;5009692;28;20821;-78
2021/09/28 07:07:04;;;;;;;3.70;1.17;;;17.70;99.90;;;;;;5009855;28;20466;-78
2021/09/28 07:09:35;;;;;;;1.47;1.30;;;17.80;99.90;;;;;;5012196;28;20462;-78
2021/09/28 07:12:03;;;;;;;3.10;1.30;;;17.70;99.90;;;;;;5012089;28;20464;-78
2021/09/28 07:14:31;;;;;;;2.20;1.20;;;17.80;99.90;;;;;;5010741;28;20485;-78
2021/09/28 07:17:00;;;;;;;3.60;2.40;;;17.80;99.90;;;;;;5010205;28;20457;-75
2021/09/28 07:19:28;;;;;;;3.50;1.87;;;17.80;99.90;;;;;;5012263;28;20977;-78
2021/09/28 07:21:56;;;;;;;11.87;3.90;;;17.80;99.90;;;;;;5007604;28;20469;-77
2021/09/28 07:24:24;;;;;;;1.90;1.33;;;17.80;99.90;;;;;;5028284;28;20437;-78
2021/09/28 07:26:54;;;;;;;2.07;1.40;;;17.90;99.90;;;;;;5006543;28;20543;-77
2021/09/28 07:29:22;;;;;;;2.20;1.10;;;17.90;99.90;;;;;;5011174;28;20832;-78
2021/09/28 07:31:50;;;;;;;4.50;1.45;;;17.90;99.90;;;;;;5012695;28;20537;-77
2021/09/28 07:34:19;;;;;;;2.97;1.10;;;18.00;99.90;;;;;;5012779;28;20226;-79
2021/09/28 07:36:47;;;;;;;2.47;2.27;;;17.90;99.90;;;;;;5013806;28;20461;-77
2021/09/28 07:39:15;;;;;;;1.27;1.00;;;18.10;99.90;;;;;;5014517;28;20971;-78
2021/09/28 07:41:43;;;;;;;2.30;1.00;;;18.10;99.90;;;;;;5012105;28;20465;-77
2021/09/28 07:44:13;;;;;;;2.73;1.57;;;18.20;99.90;;;;;;5013583;28;20469;-78
2021/09/28 07:46:41;;;;;;;1.90;1.20;;;18.20;99.90;;;;;;5012795;28;21198;-77
2021/09/28 07:49:09;;;;;;;4.10;0.90;;;18.30;99.90;;;;;;5013803;28;20444;-79
2021/09/28 07:51:37;;;;;;;1.90;0.90;;;18.50;99.90;;;;;;5015065;28;20479;-77
2021/09/28 07:54:06;;;;;;;1.40;1.00;;;18.80;99.90;;;;;;5017473;28;20477;-77
2021/09/28 07:56:34;;;;;;;1.00;0.90;;;19.10;99.90;;;;;;5016506;28;20472;-79
2021/09/28 07:59:05;;;;;;;1.93;0.87;;;19.30;99.90;;;;;;5016551;28;20457;-79
2021/09/28 08:01:35;;;;;;;2.53;1.13;;;19.70;99.90;;;;;;5018223;28;20469;-78
2021/09/28 08:04:03;;;;;;;3.60;1.10;;;19.90;99.90;;;;;;5020126;28;20477;-77
2021/09/28 08:06:32;;;;;;;3.30;1.00;;;20.00;99.90;;;;;;5015068;28;20457;-79
2021/09/28 08:09:00;;;;;;;1.30;0.90;;;20.20;99.90;;;;;;5017358;28;20458;-77
2021/09/28 08:11:28;;;;;;;1.63;0.90;;;20.40;99.90;;;;;;5011366;28;20466;-77
2021/09/28 08:13:57;;;;;;;3.33;0.90;;;20.40;99.90;;;;;;5011921;28;20592;-78
2021/09/28 08:16:27;;;;;;;1.90;0.90;;;20.40;99.90;;;;;;5017629;28;20464;-80
2021/09/28 08:18:57;;;;;;;1.30;1.10;;;20.30;99.90;;;;;;5012933;28;20537;-79
2021/09/28 08:21:25;;;;;;;2.60;2.10;;;20.00;99.90;;;;;;5018357;28;20466;-79
2021/09/28 08:23:53;;;;;;;3.50;0.93;;;19.80;99.90;;;;;;5007301;28;21034;-81
2021/09/28 08:29:10;;;;;;;2.43;1.10;;;19.50;99.90;;;;;;5011328;28;20457;-78
2021/09/28 08:31:40;;;;;;;3.33;1.33;;;19.50;99.90;;;;;;5014883;28;20890;-78
2021/09/28 08:34:12;;;;;;;3.67;1.27;;;19.30;99.90;;;;;;5017681;28;20905;-80
2021/09/28 08:36:41;;;;;;;3.50;1.17;;;19.20;99.90;;;;;;5016434;28;20445;-78
2021/09/28 08:39:12;;;;;;;1.57;1.47;;;19.20;99.90;;;;;;5017582;28;20457;-78
2021/09/28 08:41:40;;;;;;;1.97;1.10;;;19.30;99.90;;;;;;5016483;28;20461;-77
2021/09/28 08:44:08;;;;;;;1.77;1.17;;;19.30;99.90;;;;;;5011611;28;20782;-78
2021/09/28 08:46:37;;;;;;;1.60;1.00;;;19.50;99.90;;;;;;5014773;28;20985;-79
2021/09/28 08:49:05;;;;;;;1.20;1.10;;;19.70;99.90;;;;;;5016064;28;20831;-78
2021/09/28 08:51:37;;;;;;;2.97;0.83;;;19.90;99.90;;;;;;5018252;28;20904;-78
2021/09/28 08:54:05;;;;;;;3.67;1.10;;;20.20;99.90;;;;;;5017034;28;20505;-77
2021/09/28 08:56:33;;;;;;;3.37;1.00;;;20.40;99.90;;;;;;5016452;28;20453;-80
2021/09/28 08:59:03;;;;;;;2.03;0.97;;;20.70;99.90;;;;;;5015179;28;20469;-79
2021/09/28 09:01:31;;;;;;;0.90;0.83;;;20.60;99.90;;;;;;5020336;28;20466;-78
2021/09/28 09:04:14;;;;;;;1.77;0.80;;;20.60;99.90;;;;;;5017361;28;20488;-79
2021/09/28 09:06:45;;;;;;;1.07;0.90;;;20.80;99.90;;;;;;5018294;28;20463;-79
2021/09/28 09:09:13;;;;;;;3.10;1.30;;;21.10;99.90;;;;;;5017336;28;20859;-78
2021/09/28 09:11:43;;;;;;;1.40;1.20;;;21.40;99.90;;;;;;5017008;28;20459;-78
2021/09/28 09:14:17;;;;;;;1.83;0.90;;;21.60;99.90;;;;;;5028512;28;20474;-80
2021/09/28 09:16:47;;;;;;;6.63;1.00;;;21.80;99.90;;;;;;5017390;28;20460;-79
2021/09/28 09:19:17;;;;;;;3.40;0.83;;;21.90;99.90;;;;;;5021558;28;20471;-79
2021/09/28 09:21:50;;;;;;;1.90;1.00;;;22.20;99.90;;;;;;5016903;28;20469;-78
2021/09/28 09:24:45;;;;;;;1.30;1.07;;;22.40;99.90;;;;;;5014590;28;20462;-79
2021/09/28 09:27:16;;;;;;;2.37;0.90;;;22.70;99.90;;;;;;5022227;28;20462;-79
2021/09/28 09:30:06;;;;;;;1.77;0.90;;;22.80;99.90;;;;;;5014430;28;20505;-78
2021/09/28 09:32:46;;;;;;;1.30;0.90;;;23.00;99.90;;;;;;5016409;28;20477;-78
2021/09/28 09:35:22;;;;;;;3.70;1.97;;;23.30;99.90;;;;;;5013176;28;20534;-79
2021/09/28 09:38:03;;;;;;;2.03;1.00;;;23.40;99.90;;;;;;5014190;28;20511;-77
2021/09/28 09:40:37;;;;;;;1.00;0.90;;;23.70;99.90;;;;;;5014851;28;20454;-79
2021/09/28 09:43:07;;;;;;;4.33;1.50;;;23.80;99.90;;;;;;5011222;28;20902;-79
2021/09/28 09:45:36;;;;;;;1.00;0.90;;;23.60;99.90;;;;;;5016762;28;20521;-78
2021/09/28 09:48:22;;;;;;;1.83;0.90;;;23.50;99.90;;;;;;5012486;28;20461;-79
2021/09/28 09:50:56;;;;;;;1.60;1.10;;;23.80;99.90;;;;;;5016533;28;20476;-79
2021/09/28 09:53:26;;;;;;;0.80;0.80;;;24.10;99.90;;;;;;5019780;28;20469;-79
2021/09/28 09:55:54;;;;;;;1.60;0.73;;;24.10;99.90;;;;;;5015260;28;20481;-79
2021/09/28 09:58:24;;;;;;;1.53;0.90;;;24.00;99.90;;;;;;5017942;28;20719;-78
2021/09/28 10:00:54;;;;;;;2.63;0.90;;;23.60;99.90;;;;;;5015408;28;20460;-79
2021/09/28 10:03:22;;;;;;;1.50;1.20;;;23.60;99.90;;;;;;5018596;28;20481;-81
2021/09/28 10:05:51;;;;;;;1.33;0.70;;;23.60;99.90;;;;;;5031636;28;20453;-79
2021/09/28 10:08:19;;;;;;;2.23;0.90;;;23.70;99.90;;;;;;5018585;28;20453;-78
2021/09/28 10:10:57;;;;;;;1.67;0.83;;;23.90;99.90;;;;;;5018307;28;20517;-79
2021/09/28 10:13:48;;;;;;;1.23;0.90;;;24.10;99.90;;;;;;5016606;28;20503;-79
2021/09/28 10:16:37;;;;;;;2.07;1.70;;;24.10;99.90;;;;;;5014195;28;21047;-80
2021/09/28 10:19:26;;;;;;;1.47;0.93;;;24.00;99.90;;;;;;5015217;28;20866;-78
2021/09/28 10:21:55;;;;;;;2.13;1.77;;;23.90;99.90;;;;;;5014504;28;20902;-78
2021/09/28 10:24:31;;;;;;;3.20;1.13;;;23.60;99.90;;;;;;5016367;28;20968;-79
2021/09/28 10:27:29;;;;;;;4.00;1.00;;;23.40;99.90;;;;;;5015378;28;20449;-81
2021/09/28 10:30:05;;;;;;;32.00;15.73;;;23.70;99.90;;;;;;5017658;28;20520;-79
2021/09/28 10:32:49;;;;;;;1.60;1.10;;;23.90;99.90;;;;;;5014890;28;20474;-79
2021/09/28 10:35:20;;;;;;;2.13;0.90;;;24.10;99.90;;;;;;5018345;28;20481;-81
2021/09/28 10:37:51;;;;;;;2.87;1.27;;;24.50;99.90;;;;;;5019515;28;20519;-78
2021/09/28 10:40:51;;;;;;;1.60;1.00;;;24.70;99.90;;;;;;5016792;28;20453;-80
2021/09/28 10:43:29;;;;;;;1.73;1.10;;;24.80;99.90;;;;;;5019596;28;20487;-79
2021/09/28 10:46:00;;;;;;;1.00;0.90;;;24.70;99.90;;;;;;5009493;28;21047;-78
2021/09/28 10:48:35;;;;;;;3.03;1.57;;;24.70;99.90;;;;;;5030480;28;21003;-78
2021/09/28 10:51:09;;;;;;;1.20;1.10;;;24.80;99.90;;;;;;5012624;28;20460;-78
2021/09/28 10:53:39;;;;;;;2.07;1.10;;;25.20;99.90;;;;;;5015564;28;20485;-80
2021/09/28 10:56:09;;;;;;;2.80;1.00;;;25.30;99.90;;;;;;5018290;28;20484;-80
2021/09/28 10:59:02;;;;;;;2.03;1.00;;;25.80;99.90;;;;;;5019311;28;20456;-79
2021/09/28 11:01:32;;;;;;;0.97;0.87;;;25.90;99.90;;;;;;5014819;28;20493;-79
2021/09/28 11:04:25;;;;;;;1.47;1.37;;;26.10;99.90;;;;;;5019506;28;20564;-78
2021/09/28 11:07:01;;;;;;;0.90;0.90;;;26.10;99.90;;;;;;5011230;28;20473;-78
2021/09/28 11:09:51;;;;;;;3.33;1.10;;;25.80;99.90;;;;;;5019726;28;20661;-80
2021/09/28 11:12:24;;;;;;;2.00;0.90;;;25.50;99.90;;;;;;5016817;28;20292;-79
2021/09/28 11:15:00;;;;;;;2.10;1.40;;;25.10;99.90;;;;;;5016725;28;20481;-80
2021/09/28 11:17:33;;;;;;;1.53;1.00;;;25.20;99.90;;;;;;5021429;28;20457;-80
2021/09/28 11:20:02;;;;;;;1.77;0.90;;;25.30;99.90;;;;;;5017394;28;20449;-77
2021/09/28 11:22:30;;;;;;;5.13;1.37;;;25.10;99.90;;;;;;5013420;28;20504;-78
2021/09/28 11:24:58;;;;;;;2.53;1.30;;;25.00;99.90;;;;;;5016586;28;20468;-79
2021/09/28 11:27:27;;;;;;;3.30;1.47;;;24.70;99.90;;;;;;5018877;28;20454;-80
2021/09/28 11:29:55;;;;;;;1.83;1.47;;;24.60;99.90;;;;;;5017750;28;20454;-79
2021/09/28 11:32:24;;;;;;;1.20;1.10;;;24.40;99.90;;;;;;5021835;28;20489;-80
2021/09/28 11:34:59;;;;;;;1.43;1.33;;;24.10;99.90;;;;;;5016893;28;20541;-81
2021/09/28 11:37:27;;;;;;;1.13;1.13;;;24.20;99.90;;;;;;5022518;28;20466;-80
2021/09/28 11:39:57;;;;;;;2.10;1.00;;;24.10;99.90;;;;;;5018669;28;20985;-80
2021/09/28 11:42:33;;;;;;;1.97;1.10;;;24.10;99.90;;;;;;5020643;28;20465;-79
2021/09/28 11:45:01;;;;;;;3.00;1.23;;;23.90;99.90;;;;;;5016973;28;20476;-79
2021/09/28 11:47:39;;;;;;;1.40;0.90;;;23.60;99.90;;;;;;5017809;28;20783;-81
2021/09/28 11:50:07;;;;;;;1.60;1.00;;;23.60;99.90;;;;;;5018016;28;20453;-80
2021/09/28 11:52:37;;;;;;;4.50;1.50;;;23.70;99.90;;;;;;5019536;28;20935;-80
2021/09/28 11:55:06;;;;;;;2.23;1.13;;;23.80;99.90;;;;;;5018886;28;20454;-79
2021/09/28 11:57:35;;;;;;;1.80;1.30;;;23.90;99.90;;;;;;5020650;28;21008;-80
2021/09/28 12:00:05;;;;;;;1.50;1.40;;;23.90;99.90;;;;;;5035138;28;20461;-80
2021/09/28 12:02:35;;;;;;;2.43;1.13;;;23.70;99.90;;;;;;5021687;28;20473;-80
2021/09/28 12:08:03;;;;;;;1.60;1.10;;;23.90;99.90;;;;;;5007776;28;20754;-79
2021/09/28 12:10:42;;;;;;;1.37;1.27;;;23.80;99.90;;;;;;5013128;28;20488;-79
2021/09/28 12:13:26;;;;;;;3.03;1.00;;;23.70;99.90;;;;;;5014080;28;20485;-79
2021/09/28 12:16:14;;;;;;;3.70;1.10;;;23.60;99.90;;;;;;5014389;28;20484;-80
2021/09/28 12:18:45;;;;;;;3.97;1.17;;;23.70;99.90;;;;;;5011648;28;20457;-78
2021/09/28 12:21:21;;;;;;;1.80;1.20;;;23.80;99.90;;;;;;5010380;28;20457;-78
2021/09/28 12:24:18;;;;;;;1.03;0.90;;;23.90;99.90;;;;;;5017621;28;20530;-81
2021/09/28 12:26:48;;;;;;;1.33;1.20;;;23.60;99.90;;;;;;5021189;28;20430;-80
2021/09/28 12:29:22;;;;;;;3.90;1.33;;;23.50;99.90;;;;;;5015878;28;20457;-79
2021/09/28 12:31:51;;;;;;;1.50;1.20;;;23.50;99.90;;;;;;5008747;28;20651;-80
2021/09/28 12:34:21;;;;;;;0.80;0.80;;;23.40;99.90;;;;;;5008223;28;20461;-80
2021/09/28 12:36:49;;;;;;;3.43;1.00;;;23.50;99.90;;;;;;5009883;28;20485;-80
2021/09/28 12:39:25;;;;;;;1.00;0.97;;;23.70;99.90;;;;;;5011748;28;20449;-81
2021/09/28 12:42:02;;;;;;;2.00;1.30;;;23.80;99.90;;;;;;5007063;28;20489;-81
2021/09/28 12:44:30;;;;;;;3.07;1.30;;;23.70;99.90;;;;;;5010279;28;20479;-80
2021/09/28 12:46:59;;;;;;;1.43;0.93;;;23.70;99.90;;;;;;5025218;28;20499;-80
2021/09/28 12:49:30;;;;;;;3.47;1.20;;;23.70;99.90;;;;;;5011911;28;21092;-79
2021/09/28 12:51:59;;;;;;;1.87;1.20;;;23.60;99.90;;;;;;5014259;28;20457;-80
2021/09/28 12:54:28;;;;;;;1.23;1.17;;;23.60;99.90;;;;;;5015227;28;20499;-80
2021/09/28 12:56:58;;;;;;;6.60;1.20;;;23.60;99.90;;;;;;5016830;28;20479;-79
2021/09/28 12:59:26;;;;;;;1.40;1.23;;;23.60;99.90;;;;;;5031574;28;20452;-80
2021/09/28 13:01:55;;;;;;;1.27;1.27;;;23.40;99.90;;;;;;5013894;28;20481;-81
2021/09/28 13:04:23;;;;;;;2.80;1.60;;;23.40;99.90;;;;;;5013786;28;20472;-80
2021/09/28 13:06:56;;;;;;;2.27;1.20;;;23.40;99.90;;;;;;5011565;28;20460;-81